Time;durP1;ratioP1;P1;durP2;ratioP2;P2;SDS_P1;SDS_P2;PMS_P1;PMS_P2;Temp;Humidity;BMP_temperature;BMP_pressure;BME280_temperature;BME280_humidity;BME280_pressure;Samples;Min_cycle;Max_cycle;Signal;HPM_P1;HPM_P2
2023/11/25 00:01:50;;;;;;;60.08;34.90;;;;;;;9.80;99.50;119490.34;4989897;28;20022;-75
2023/11/25 00:04:16;;;;;;;57.58;34.10;;;;;;;9.79;99.50;119464.34;4989914;28;20771;-77
2023/11/25 00:06:41;;;;;;;60.25;33.92;;;;;;;9.91;99.50;119590.47;4989451;28;20113;-75
2023/11/25 00:09:07;;;;;;;59.22;35.45;;;;;;;9.78;99.47;119682.91;4988939;28;20042;-72
2023/11/25 00:11:32;;;;;;;53.53;33.67;;;;;;;9.59;99.45;119574.41;4989308;28;20022;-73
2023/11/25 00:13:58;;;;;;;54.30;33.55;;;;;;;9.85;99.48;119793.94;4989395;28;20030;-75
2023/11/25 00:16:24;;;;;;;59.03;35.03;;;;;;;9.47;99.43;119638.69;4988656;28;20069;-71
2023/11/25 00:18:49;;;;;;;61.60;35.03;;;;;;;9.40;99.45;119374.66;4986757;28;20097;-75
2023/11/25 00:21:15;;;;;;;54.00;32.47;;;;;;;9.74;99.48;119682.56;4989116;28;20110;-75
2023/11/25 00:23:41;;;;;;;58.47;35.00;;;;;;;9.48;99.44;119707.06;4971579;28;20041;-73
2023/11/25 00:26:07;;;;;;;59.85;34.85;;;;;;;9.33;99.44;119489.22;4989266;28;20030;-74
2023/11/25 00:28:33;;;;;;;57.47;34.55;;;;;;;9.56;99.46;119723.06;4989431;28;20112;-71
2023/11/25 00:30:58;;;;;;;53.67;33.72;;;;;;;9.64;99.47;119902.47;4988769;28;20058;-73
2023/11/25 00:33:24;;;;;;;57.47;34.83;;;;;;;9.94;99.50;120081.69;4988221;28;20119;-75
2023/11/25 00:35:50;;;;;;;56.78;34.85;;;;;;;9.60;99.45;119960.81;4988392;28;20042;-74
2023/11/25 00:38:16;;;;;;;61.75;36.47;;;;;;;9.64;99.46;120012.22;4988908;28;20576;-74
2023/11/25 00:40:41;;;;;;;55.92;34.38;;;;;;;9.93;99.50;120059.22;4987606;28;20121;-74
2023/11/25 00:43:07;;;;;;;56.13;33.40;;;;;;;9.68;99.45;120254.09;4988250;28;20026;-75
2023/11/25 00:45:32;;;;;;;56.00;33.17;;;;;;;9.73;99.47;120020.06;4971352;28;20515;-75
2023/11/25 00:47:58;;;;;;;56.17;33.90;;;;;;;9.47;99.44;119850.47;4987945;28;20512;-74
2023/11/25 00:50:24;;;;;;;62.70;36.33;;;;;;;9.89;99.50;119970.50;4988924;28;20045;-76
2023/11/25 00:52:50;;;;;;;63.45;35.83;;;;;;;9.49;99.46;120018.81;4988727;28;20034;-74
2023/11/25 00:55:16;;;;;;;58.78;35.92;;;;;;;9.89;99.49;120338.22;4988112;28;20579;-74
2023/11/25 00:57:41;;;;;;;59.05;34.40;;;;;;;9.49;99.44;120188.78;4987916;28;20034;-74
2023/11/25 01:00:15;;;;;;;58.08;35.33;;;;;;;9.58;99.44;120204.38;4988716;28;20027;-74
2023/11/25 01:02:42;;;;;;;61.60;35.50;;;;;;;9.86;99.48;120366.94;4970367;28;20054;-75
2023/11/25 01:05:08;;;;;;;56.42;34.40;;;;;;;9.81;99.47;120281.25;4987736;28;20038;-75
2023/11/25 01:07:34;;;;;;;58.17;35.22;;;;;;;9.90;99.47;120590.56;4989196;28;20029;-74
2023/11/25 01:09:59;;;;;;;62.25;35.47;;;;;;;10.02;99.47;120884.56;4988644;28;20033;-71
2023/11/25 01:12:25;;;;;;;58.83;35.72;;;;;;;9.83;99.44;120880.31;4988747;28;20065;-76
2023/11/25 01:14:50;;;;;;;62.78;35.33;;;;;;;9.47;99.39;120823.84;4988227;28;20057;-75
2023/11/25 01:17:16;;;;;;;61.25;36.33;;;;;;;9.86;99.46;120835.34;4988441;28;20034;-75
2023/11/25 01:19:42;;;;;;;61.35;35.13;;;;;;;9.44;99.38;120640.69;4971076;28;20026;-75
2023/11/25 01:22:07;;;;;;;63.00;34.75;;;;;;;9.68;99.44;120668.72;4988567;28;20030;-73
2023/11/25 01:24:33;;;;;;;62.80;35.70;;;;;;;9.69;99.43;120715.66;4988616;28;20121;-74
2023/11/25 01:26:58;;;;;;;62.38;34.33;;;;;;;9.66;99.43;120557.44;4987797;28;20034;-76
2023/11/25 01:29:24;;;;;;;62.70;35.88;;;;;;;9.80;99.46;120620.44;4988260;28;20484;-74
2023/11/25 01:31:49;;;;;;;63.00;35.58;;;;;;;9.88;99.46;120600.81;4987638;28;20038;-75
2023/11/25 01:34:15;;;;;;;62.00;35.30;;;;;;;9.78;99.44;120677.69;4988463;28;20122;-72
2023/11/25 01:36:41;;;;;;;63.45;36.22;;;;;;;9.50;99.40;120781.44;4986846;28;20144;-75
2023/11/25 01:39:06;;;;;;;65.88;36.63;;;;;;;9.93;99.45;120887.78;4988729;28;20089;-76
2023/11/25 01:41:32;;;;;;;64.82;36.97;;;;;;;10.03;99.45;121014.31;4971064;28;20030;-75
2023/11/25 01:43:59;;;;;;;65.75;37.35;;;;;;;9.21;99.33;120925.94;4986280;28;20069;-75
2023/11/25 01:46:43;;;;;;;68.07;37.55;;;;;;;9.37;99.36;121203.31;4988225;28;20065;-75
2023/11/25 01:49:14;;;;;;;65.93;37.05;;;;;;;9.60;99.38;121176.97;4970622;28;20492;-75
2023/11/25 01:51:42;;;;;;;64.00;37.35;;;;;;;9.55;99.36;121337.88;4970705;28;20066;-74
2023/11/25 01:54:10;;;;;;;63.30;35.95;;;;;;;9.96;99.40;121925.03;4971250;28;20038;-72
2023/11/25 01:56:35;;;;;;;68.72;37.33;;;;;;;9.65;99.35;121985.41;4987477;28;20077;-76
2023/11/25 01:59:04;;;;;;;70.15;38.45;;;;;;;9.54;99.32;122215.78;4988130;28;20042;-75
2023/11/25 02:01:30;;;;;;;66.60;37.47;;;;;;;10.02;99.39;122431.53;4987903;28;20018;-76
2023/11/25 02:03:56;;;;;;;68.90;38.03;;;;;;;10.02;99.36;122594.13;4987985;28;20077;-74
2023/11/25 02:06:23;;;;;;;61.92;36.08;;;;;;;9.98;99.37;122609.94;4987290;28;20096;-70
2023/11/25 02:08:50;;;;;;;65.70;37.35;;;;;;;9.56;99.32;122404.78;4970297;28;20580;-74
2023/11/25 02:11:16;;;;;;;68.88;38.15;;;;;;;9.71;99.34;122558.63;4968962;28;20034;-74
2023/11/25 02:13:41;;;;;;;67.60;38.85;;;;;;;9.64;99.33;122713.91;4970040;28;20190;-73
2023/11/25 02:16:10;;;;;;;63.47;37.50;;;;;;;9.46;99.31;122695.84;4972881;28;20499;-74
2023/11/25 02:18:39;;;;;;;62.00;37.17;;;;;;;9.77;99.33;122992.53;4991375;28;20081;-76
2023/11/25 02:21:05;;;;;;;61.47;36.75;;;;;;;9.75;99.34;123188.75;4992301;28;20509;-76
2023/11/25 02:23:34;;;;;;;64.18;37.40;;;;;;;9.45;99.29;123112.63;4991077;28;20058;-72
2023/11/25 02:26:00;;;;;;;62.58;35.35;;;;;;;9.86;99.34;123249.81;4991343;28;20066;-76
2023/11/25 02:28:26;;;;;;;58.13;35.33;;;;;;;9.90;99.34;123609.78;4991780;28;20031;-75
2023/11/25 02:30:52;;;;;;;57.92;35.25;;;;;;;10.03;99.36;123589.13;4991895;28;20472;-76
2023/11/25 02:33:18;;;;;;;56.95;35.55;;;;;;;10.18;99.38;123515.31;4974415;28;20095;-76
2023/11/25 02:35:46;;;;;;;59.60;35.95;;;;;;;9.93;99.33;123767.84;4991609;28;20034;-74
2023/11/25 02:38:12;;;;;;;55.22;34.45;;;;;;;10.16;99.36;123966.41;4991535;28;20088;-75
2023/11/25 02:40:40;;;;;;;52.85;33.30;;;;;;;9.73;99.30;123842.91;4958392;28;20493;-76
2023/11/25 02:43:07;;;;;;;55.83;35.20;;;;;;;10.01;99.34;123833.00;4989839;28;20029;-75
2023/11/25 02:45:34;;;;;;;53.25;33.13;;;;;;;10.08;99.36;123791.22;4991490;28;20637;-75
2023/11/25 02:47:59;;;;;;;56.42;34.20;;;;;;;9.81;99.32;123916.78;4990349;28;20493;-77
2023/11/25 02:50:25;;;;;;;54.75;33.05;;;;;;;10.21;99.36;124355.38;4991896;28;20081;-77
2023/11/25 02:52:51;;;;;;;56.75;32.90;;;;;;;10.12;99.35;124239.44;4991113;28;20050;-75
2023/11/25 02:55:17;;;;;;;52.38;31.90;;;;;;;9.75;99.30;124231.50;4990571;28;20030;-73
2023/11/25 02:57:45;;;;;;;54.80;33.10;;;;;;;10.11;99.35;124088.00;4971952;28;20076;-75
2023/11/25 03:00:18;;;;;;;52.10;32.50;;;;;;;10.07;99.35;124039.78;4991346;28;20045;-76
2023/11/25 03:02:44;;;;;;;51.13;32.15;;;;;;;10.14;99.36;124274.28;4990678;28;20085;-71
2023/11/25 03:05:13;;;;;;;49.83;30.65;;;;;;;9.90;99.31;124329.22;4990519;28;20030;-75
2023/11/25 03:07:39;;;;;;;51.53;31.85;;;;;;;9.76;99.30;124240.22;4990516;28;20240;-75
2023/11/25 03:10:06;;;;;;;50.60;32.10;;;;;;;10.13;99.34;124545.94;4990664;28;20056;-74
2023/11/25 03:12:32;;;;;;;53.95;32.17;;;;;;;10.12;99.34;124561.72;4973635;28;20121;-75
2023/11/25 03:14:57;;;;;;;53.63;32.55;;;;;;;9.72;99.30;124685.41;4973144;28;20121;-74
2023/11/25 03:17:23;;;;;;;54.30;32.05;;;;;;;10.18;99.34;124883.78;4990287;28;20029;-76
2023/11/25 03:19:48;;;;;;;51.13;31.73;;;;;;;10.30;99.36;125104.91;4990806;28;20130;-75
2023/11/25 03:22:14;;;;;;;50.20;31.10;;;;;;;10.32;99.37;125355.81;4990609;28;20030;-75
2023/11/25 03:24:41;;;;;;;46.40;30.35;;;;;;;10.04;99.31;125552.84;4990177;28;20060;-74
2023/11/25 03:27:07;;;;;;;46.25;29.60;;;;;;;10.21;99.34;125848.59;4989622;28;20035;-75
2023/11/25 03:29:33;;;;;;;48.63;30.98;;;;;;;10.42;99.38;125827.34;4989898;28;20042;-75
2023/11/25 03:31:59;;;;;;;51.60;31.25;;;;;;;10.15;99.33;125867.72;4988514;28;20022;-75
2023/11/25 03:34:25;;;;;;;50.50;31.40;;;;;;;10.47;99.36;126000.69;4990310;28;20034;-76
2023/11/25 03:36:51;;;;;;;51.50;31.10;;;;;;;10.68;99.40;125991.16;4989603;28;20097;-72
2023/11/25 03:39:17;;;;;;;50.47;31.50;;;;;;;10.37;99.34;125898.75;4972862;28;20545;-72
2023/11/25 03:41:43;;;;;;;50.30;31.30;;;;;;;10.56;99.37;125822.47;4989848;28;20137;-75
2023/11/25 03:44:08;;;;;;;46.20;29.88;;;;;;;10.29;99.34;125654.09;4989796;28;20080;-74
2023/11/25 03:46:34;;;;;;;49.15;30.48;;;;;;;10.65;99.39;125594.53;4989748;28;20108;-75
2023/11/25 03:48:59;;;;;;;45.83;30.45;;;;;;;10.22;99.33;125426.94;4990046;28;20140;-75
2023/11/25 03:51:25;;;;;;;48.97;30.98;;;;;;;10.29;99.34;125331.63;4971598;28;20130;-75
2023/11/25 03:53:50;;;;;;;49.13;30.45;;;;;;;10.46;99.36;125348.28;4989639;28;20042;-75
2023/11/25 03:56:16;;;;;;;47.47;30.83;;;;;;;10.40;99.37;125294.75;4990234;28;20030;-74
2023/11/25 03:58:42;;;;;;;45.13;29.55;;;;;;;10.01;99.30;125264.09;4989208;28;20161;-73
2023/11/25 04:01:08;;;;;;;48.72;30.35;;;;;;;10.40;99.36;125367.47;4988004;28;20037;-74
2023/11/25 04:03:35;;;;;;;50.75;31.48;;;;;;;10.03;99.31;125463.78;4989139;28;20413;-76
2023/11/25 04:06:02;;;;;;;48.90;29.70;;;;;;;10.45;99.37;125531.56;4989623;28;20045;-76
2023/11/25 04:08:27;;;;;;;45.67;29.25;;;;;;;10.39;99.37;125544.56;4987953;28;20038;-75
2023/11/25 04:10:52;;;;;;;50.83;30.40;;;;;;;10.02;99.30;125442.72;4972251;28;20030;-74
2023/11/25 04:13:18;;;;;;;48.67;31.23;;;;;;;10.29;99.36;125257.41;4989106;28;20550;-75
2023/11/25 04:15:44;;;;;;;48.38;31.20;;;;;;;10.32;99.35;125294.38;4989123;28;20034;-75
2023/11/25 04:18:09;;;;;;;49.20;29.83;;;;;;;10.03;99.31;125338.44;4972364;28;20046;-75
2023/11/25 04:20:35;;;;;;;50.70;30.48;;;;;;;10.31;99.36;125297.41;4989303;28;20027;-75
2023/11/25 04:23:09;;;;;;;50.72;31.67;;;;;;;10.26;99.35;125321.72;4988657;28;20042;-73
2023/11/25 04:25:35;;;;;;;50.05;30.30;;;;;;;9.89;99.30;125200.56;4971146;28;20493;-74
2023/11/25 04:28:01;;;;;;;48.38;30.60;;;;;;;10.28;99.34;125261.94;4989470;28;20041;-74
2023/11/25 04:30:27;;;;;;;46.65;30.10;;;;;;;9.87;99.29;125312.53;4989113;28;20090;-75
2023/11/25 04:32:53;;;;;;;48.10;30.55;;;;;;;10.04;99.31;125399.34;4988790;28;20034;-74
2023/11/25 04:35:18;;;;;;;47.40;29.67;;;;;;;9.84;99.29;125310.31;4989098;28;20022;-75
2023/11/25 04:37:45;;;;;;;50.08;30.00;;;;;;;9.89;99.29;125431.81;4988934;28;20026;-75
2023/11/25 04:40:11;;;;;;;48.08;29.33;;;;;;;10.03;99.32;125324.56;4988315;28;20026;-73
2023/11/25 04:42:37;;;;;;;45.92;30.63;;;;;;;10.09;99.33;125380.66;4977743;28;20414;-75
2023/11/25 04:45:03;;;;;;;44.10;28.63;;;;;;;9.86;99.29;125462.81;4988662;28;20026;-75
2023/11/25 04:47:29;;;;;;;47.28;28.92;;;;;;;9.87;99.31;125521.16;4971499;28;20027;-75
2023/11/25 04:49:55;;;;;;;44.78;28.52;;;;;;;10.20;99.33;125683.75;4989176;28;20022;-75
2023/11/25 04:52:20;;;;;;;46.33;29.60;;;;;;;10.21;99.34;125733.44;4989138;28;20022;-74
2023/11/25 04:54:46;;;;;;;43.83;29.00;;;;;;;10.10;99.33;125743.56;4988196;28;20030;-73
2023/11/25 04:57:12;;;;;;;45.40;29.17;;;;;;;9.90;99.29;125635.97;4988879;28;20096;-76
2023/11/25 04:59:38;;;;;;;49.72;30.60;;;;;;;9.57;99.24;125567.59;4988324;28;20030;-75
2023/11/25 05:02:05;;;;;;;49.67;29.63;;;;;;;10.06;99.33;125459.81;4988558;28;20092;-73
2023/11/25 05:04:30;;;;;;;51.95;30.95;;;;;;;10.09;99.32;125491.72;4988692;28;20049;-76
2023/11/25 05:06:56;;;;;;;49.72;30.73;;;;;;;9.80;99.28;125588.31;4988289;28;20493;-75
2023/11/25 05:09:25;;;;;;;50.17;30.98;;;;;;;10.19;99.33;125788.09;4988560;28;20053;-73
2023/11/25 05:11:54;;;;;;;52.20;31.65;;;;;;;10.10;99.31;125943.16;4988226;28;20026;-75
2023/11/25 05:14:20;;;;;;;52.05;30.55;;;;;;;9.74;99.28;125890.22;4970636;28;20520;-75
2023/11/25 05:16:46;;;;;;;55.97;31.60;;;;;;;9.81;99.28;125921.38;4987972;28;20034;-74
2023/11/25 05:19:12;;;;;;;52.10;31.20;;;;;;;9.93;99.30;125977.38;4987962;28;20046;-74
2023/11/25 05:21:38;;;;;;;47.60;29.58;;;;;;;9.92;99.30;126162.03;4987327;28;20039;-73
2023/11/25 05:24:04;;;;;;;47.15;30.45;;;;;;;10.14;99.32;126305.78;4987058;28;20516;-76
2023/11/25 05:26:30;;;;;;;48.65;30.90;;;;;;;10.32;99.35;126569.13;4987333;28;20038;-75
2023/11/25 05:28:56;;;;;;;44.58;29.50;;;;;;;10.12;99.32;126380.88;4986406;28;20481;-73
2023/11/25 05:31:22;;;;;;;49.00;29.85;;;;;;;10.26;99.34;126273.81;4987423;28;20026;-73
2023/11/25 05:33:48;;;;;;;45.60;29.02;;;;;;;9.77;99.27;126153.34;4985690;28;20031;-74
2023/11/25 05:36:14;;;;;;;43.78;27.88;;;;;;;9.79;99.26;126142.22;4987786;28;20092;-76
2023/11/25 05:38:54;;;;;;;41.80;28.60;;;;;;;9.67;99.25;125975.16;4987243;28;20026;-73
2023/11/25 05:41:22;;;;;;;44.10;26.88;;;;;;;9.46;99.24;126187.56;4987684;28;20030;-74
2023/11/25 05:43:50;;;;;;;44.75;26.75;;;;;;;10.09;99.31;126396.47;4969287;28;20557;-72
2023/11/25 05:46:25;;;;;;;41.33;25.60;;;;;;;10.13;99.31;126434.19;4987272;28;20045;-74
2023/11/25 05:48:52;;;;;;;43.15;27.17;;;;;;;9.76;99.26;126306.19;4985995;28;20034;-73
2023/11/25 05:51:18;;;;;;;42.35;26.45;;;;;;;9.78;99.26;126398.47;4990424;28;20036;-72
2023/11/25 05:53:45;;;;;;;40.53;26.80;;;;;;;9.75;99.27;126366.50;4991949;28;20031;-72
2023/11/25 05:56:11;;;;;;;38.08;26.85;;;;;;;10.01;99.29;126452.25;4974494;28;20117;-73
2023/11/25 05:58:37;;;;;;;37.78;25.65;;;;;;;10.25;99.34;126690.00;4989615;28;20109;-72
2023/11/25 06:01:04;;;;;;;38.72;25.27;;;;;;;9.75;99.27;126512.31;4973960;28;20507;-71
2023/11/25 06:03:30;;;;;;;40.35;25.10;;;;;;;10.21;99.32;126540.72;4989444;28;20570;-73
2023/11/25 06:05:55;;;;;;;40.58;26.35;;;;;;;10.04;99.30;126486.72;4991088;28;20038;-73
2023/11/25 06:08:21;;;;;;;37.22;25.02;;;;;;;10.35;99.34;126578.06;4991190;28;20485;-73
2023/11/25 06:10:49;;;;;;;40.42;26.55;;;;;;;10.43;99.35;126634.94;4991246;28;20038;-73
2023/11/25 06:13:17;;;;;;;38.33;26.95;;;;;;;10.43;99.35;126632.38;4971209;28;20039;-74
2023/11/25 06:15:43;;;;;;;35.80;25.35;;;;;;;10.34;99.33;126451.97;4973355;28;20117;-72
2023/11/25 06:18:08;;;;;;;37.75;24.23;;;;;;;10.36;99.34;126405.00;4973943;28;20121;-74
2023/11/25 06:20:34;;;;;;;33.70;22.45;;;;;;;10.01;99.30;126364.19;4991034;28;20026;-74
2023/11/25 06:23:03;;;;;;;33.63;22.73;;;;;;;10.49;99.36;126578.50;4973737;28;20031;-74
2023/11/25 06:25:28;;;;;;;30.95;22.50;;;;;;;10.22;99.31;126581.22;4988239;28;20041;-73
2023/11/25 06:27:54;;;;;;;32.22;23.27;;;;;;;10.53;99.36;126544.94;4991314;28;20034;-75
2023/11/25 06:30:22;;;;;;;36.92;24.30;;;;;;;10.27;99.33;126512.47;4990289;28;20032;-75
2023/11/25 06:32:48;;;;;;;33.85;23.13;;;;;;;10.56;99.36;126430.94;4990915;28;20026;-76
2023/11/25 06:35:13;;;;;;;33.83;23.92;;;;;;;10.73;99.38;126541.19;4990905;28;20030;-74
2023/11/25 06:37:40;;;;;;;32.63;24.38;;;;;;;10.25;99.33;126318.81;4972724;28;20038;-73
2023/11/25 06:40:07;;;;;;;31.27;23.30;;;;;;;10.51;99.36;126423.97;4990052;28;20037;-71
2023/11/25 06:42:33;;;;;;;35.47;23.98;;;;;;;10.60;99.37;126429.16;4990376;28;20041;-73
2023/11/25 06:44:58;;;;;;;34.17;24.20;;;;;;;10.57;99.37;126526.31;4990886;28;20083;-74
2023/11/25 06:47:24;;;;;;;35.83;23.67;;;;;;;10.25;99.33;126556.88;4991210;28;20034;-75
2023/11/25 06:49:52;;;;;;;30.73;22.95;;;;;;;10.73;99.39;126729.28;4990340;28;20026;-73
2023/11/25 06:52:18;;;;;;;32.42;23.08;;;;;;;10.80;99.39;126680.06;4989436;28;20468;-74
2023/11/25 06:54:43;;;;;;;33.53;23.33;;;;;;;10.59;99.37;126732.88;4990833;28;20057;-72
2023/11/25 06:57:09;;;;;;;32.40;22.02;;;;;;;10.51;99.36;126814.72;4988725;28;20054;-74
2023/11/25 06:59:35;;;;;;;30.17;22.58;;;;;;;10.68;99.38;126810.88;4990026;28;20097;-74
2023/11/25 07:02:01;;;;;;;33.33;23.90;;;;;;;10.98;99.41;126829.94;4988708;28;20042;-72
2023/11/25 07:04:26;;;;;;;36.88;24.65;;;;;;;10.96;99.42;126770.38;4989181;28;20038;-73
2023/11/25 07:06:52;;;;;;;35.20;24.70;;;;;;;10.95;99.41;126813.31;4972412;28;20092;-72
2023/11/25 07:09:18;;;;;;;28.63;22.20;;;;;;;10.37;99.34;126689.84;4990055;28;20033;-74
2023/11/25 07:11:48;;;;;;;27.15;21.20;;;;;;;10.97;99.41;126843.19;4990039;28;20038;-74
2023/11/25 07:14:14;;;;;;;32.08;23.20;;;;;;;11.15;99.45;127128.59;4989702;28;20053;-73
2023/11/25 07:16:39;;;;;;;31.52;21.45;;;;;;;10.69;99.38;127107.66;4972211;28;20493;-74
2023/11/25 07:19:05;;;;;;;31.85;21.77;;;;;;;11.18;99.44;127199.09;4971636;28;20132;-73
2023/11/25 07:21:31;;;;;;;33.53;21.98;;;;;;;10.94;99.40;127152.06;4990481;28;20030;-74
2023/11/25 07:23:58;;;;;;;32.72;22.80;;;;;;;11.24;99.43;127218.47;4972731;28;20407;-75
2023/11/25 07:26:23;;;;;;;34.28;22.45;;;;;;;11.25;99.44;127160.13;4989270;28;20033;-71
2023/11/25 07:28:49;;;;;;;34.70;24.55;;;;;;;11.34;99.44;127244.91;4972138;28;20038;-74
2023/11/25 07:31:14;;;;;;;35.20;23.45;;;;;;;10.78;99.37;127146.22;4990083;28;20532;-75
2023/11/25 07:33:40;;;;;;;33.42;21.70;;;;;;;11.47;99.48;127287.94;4989911;28;20038;-78
2023/11/25 07:36:06;;;;;;;30.77;20.77;;;;;;;11.48;99.48;127228.53;4972126;28;20098;-77
2023/11/25 07:38:32;;;;;;;26.55;20.52;;;;;;;11.49;99.45;127047.44;4990341;28;20038;-75
2023/11/25 07:40:58;;;;;;;25.48;19.00;;;;;;;11.49;99.49;126876.59;4985537;28;20065;-74
2023/11/25 07:43:24;;;;;;;24.63;18.13;;;;;;;11.55;99.49;126755.94;4988100;28;20061;-75
2023/11/25 07:45:50;;;;;;;28.27;19.05;;;;;;;11.67;99.51;126913.78;4989589;28;20069;-79
2023/11/25 07:48:15;;;;;;;28.88;18.63;;;;;;;11.68;99.51;126465.38;4988339;28;20026;-73
2023/11/25 07:50:45;;;;;;;27.02;18.67;;;;;;;11.75;99.53;126351.84;4989478;28;20519;-76
2023/11/25 07:53:11;;;;;;;28.92;18.38;;;;;;;12.01;99.56;126375.97;4988164;28;20034;-76
2023/11/25 07:55:37;;;;;;;28.92;18.40;;;;;;;11.59;99.50;125865.50;4991870;28;20041;-74
2023/11/25 07:58:02;;;;;;;29.30;18.63;;;;;;;11.04;99.42;125597.06;4989767;28;20038;-71
2023/11/25 08:00:28;;;;;;;25.15;17.92;;;;;;;11.30;99.46;125638.88;4991361;28;20030;-75
2023/11/25 08:02:56;;;;;;;25.67;17.77;;;;;;;11.07;99.43;125521.38;4992053;28;20069;-74
2023/11/25 08:05:23;;;;;;;22.60;14.20;;;;;;;11.94;99.55;125716.94;4989313;28;20104;-69
2023/11/25 08:07:53;;;;;;;15.32;11.07;;;;;;;11.44;99.48;125285.19;4991593;28;20069;-76
2023/11/25 08:10:20;;;;;;;15.93;9.70;;;;;;;10.72;99.38;124871.69;4989886;28;20412;-75
2023/11/25 08:12:46;;;;;;;12.40;8.77;;;;;;;11.15;99.46;124624.34;4987528;28;20548;-70
2023/11/25 08:15:15;;;;;;;12.10;6.70;;;;;;;11.22;99.46;124359.66;4992942;28;20120;-72
2023/11/25 08:17:42;;;;;;;10.52;6.85;;;;;;;11.19;99.47;124084.34;4988684;28;20043;-72
2023/11/25 08:20:10;;;;;;;9.77;6.20;;;;;;;11.22;99.49;123810.28;4989025;28;20031;-74
2023/11/25 08:22:36;;;;;;;8.77;5.93;;;;;;;11.04;99.46;123578.38;4990210;28;20034;-72
2023/11/25 08:25:07;;;;;;;12.90;9.07;;;;;;;10.77;99.43;123212.88;4990025;28;20084;-74
2023/11/25 08:27:39;;;;;;;8.40;6.53;;;;;;;11.12;99.48;123014.56;4971908;28;20483;-73
2023/11/25 08:30:08;;;;;;;7.53;5.15;;;;;;;10.55;99.42;122630.25;4987939;28;20085;-73
2023/11/25 08:32:41;;;;;;;7.78;5.22;;;;;;;10.74;99.45;122368.28;4970783;28;20038;-73
2023/11/25 08:35:11;;;;;;;7.60;4.97;;;;;;;10.72;99.44;122071.47;4988865;28;20105;-72
2023/11/25 08:37:38;;;;;;;12.18;8.40;;;;;;;10.95;99.49;121757.56;4988099;28;20037;-72
2023/11/25 08:40:15;;;;;;;8.55;5.43;;;;;;;11.02;99.51;121554.22;4988631;28;20054;-76
2023/11/25 08:42:43;;;;;;;8.73;5.65;;;;;;;10.21;99.41;121069.69;4991609;28;20484;-74
2023/11/25 08:45:09;;;;;;;10.45;6.72;;;;;;;10.76;99.50;120893.59;4991517;28;20030;-74
2023/11/25 08:47:35;;;;;;;8.35;5.70;;;;;;;10.61;99.49;120550.28;4988730;28;20822;-73
2023/11/25 08:50:01;;;;;;;5.78;4.18;;;;;;;10.68;99.50;120413.50;4973172;28;20030;-73
2023/11/25 08:52:27;;;;;;;7.63;3.08;;;;;;;10.60;99.50;120101.81;4989645;28;20040;-77
2023/11/25 08:54:53;;;;;;;4.68;2.00;;;;;;;10.08;99.45;119671.44;4971475;28;20034;-72
2023/11/25 08:57:20;;;;;;;3.72;2.45;;;;;;;10.51;99.51;119563.88;4973930;28;20040;-75
2023/11/25 08:59:46;;;;;;;4.55;2.40;;;;;;;10.07;99.46;119264.91;4987667;28;20050;-75
2023/11/25 09:02:12;;;;;;;5.05;2.85;;;;;;;10.14;99.46;119044.94;4987510;28;20030;-73
2023/11/25 09:04:42;;;;;;;5.55;3.63;;;;;;;10.48;99.53;118866.31;4989238;28;20041;-72
2023/11/25 09:07:13;;;;;;;4.65;3.40;;;;;;;10.09;99.49;118582.97;4988473;28;20038;-70
2023/11/25 09:09:39;;;;;;;7.20;3.40;;;;;;;10.58;99.57;118502.84;4971485;28;20173;-72
2023/11/25 09:12:05;;;;;;;6.65;2.65;;;;;;;10.59;99.58;118297.88;4973463;28;20113;-71
2023/11/25 09:14:31;;;;;;;4.22;2.35;;;;;;;10.22;99.54;118041.81;4990430;28;20030;-71
2023/11/25 09:16:56;;;;;;;8.18;3.30;;;;;;;10.58;99.61;117809.44;4988907;28;20048;-72
2023/11/25 09:19:23;;;;;;;4.88;2.22;;;;;;;10.58;99.62;117493.59;4971372;28;20493;-73
2023/11/25 09:21:49;;;;;;;3.40;1.88;;;;;;;10.10;99.60;117147.66;4990459;28;20030;-73
2023/11/25 09:24:15;;;;;;;5.53;1.65;;;;;;;10.23;99.63;116909.19;4986544;28;20042;-73
2023/11/25 09:26:40;;;;;;;5.15;1.80;;;;;;;10.18;99.65;116590.59;4989278;28;20032;-71
2023/11/25 09:29:06;;;;;;;4.00;1.98;;;;;;;10.43;99.73;116271.63;4978417;28;20453;-73
2023/11/25 09:31:32;;;;;;;4.47;2.28;;;;;;;10.38;99.77;115991.28;4988317;28;20022;-73
2023/11/25 09:33:59;;;;;;;4.43;1.63;;;;;;;10.30;99.81;115606.66;4988567;28;20065;-74
2023/11/25 09:36:25;;;;;;;4.63;1.58;;;;;;;9.92;99.79;115264.50;4987926;28;20033;-72
2023/11/25 09:38:51;;;;;;;5.43;2.42;;;;;;;10.07;99.83;115054.56;4988060;28;20035;-74
2023/11/25 09:41:17;;;;;;;2.80;1.63;;;;;;;9.85;99.86;114701.19;4990147;28;20042;-72
2023/11/25 09:43:43;;;;;;;3.35;2.00;;;;;;;9.82;99.92;114404.84;4972468;28;20066;-72
2023/11/25 09:46:09;;;;;;;2.60;1.70;;;;;;;10.00;100.00;114165.44;4971346;28;20508;-73
2023/11/25 09:48:35;;;;;;;2.22;1.00;;;;;;;9.52;100.00;113817.53;4970724;28;20467;-71
2023/11/25 09:51:03;;;;;;;4.97;1.83;;;;;;;9.97;100.00;113619.22;4970084;28;20999;-72
2023/11/25 09:53:31;;;;;;;1.98;0.98;;;;;;;9.32;100.00;113260.94;4987521;28;20089;-73
2023/11/25 09:56:01;;;;;;;2.45;1.20;;;;;;;9.90;100.00;112971.28;4972548;28;20432;-74
2023/11/25 09:58:31;;;;;;;2.08;1.20;;;;;;;9.85;100.00;112730.88;4989524;28;20030;-73
2023/11/25 10:00:57;;;;;;;1.50;1.00;;;;;;;9.86;100.00;112421.91;4987194;28;20113;-72
2023/11/25 10:03:26;;;;;;;1.75;1.00;;;;;;;9.86;100.00;112113.63;4979149;28;20117;-72
2023/11/25 10:05:51;;;;;;;1.20;0.90;;;;;;;9.35;100.00;111689.72;4971998;28;20046;-73
2023/11/25 10:08:17;;;;;;;1.80;1.10;;;;;;;9.60;100.00;111480.19;4987868;28;20054;-74
2023/11/25 10:11:18;;;;;;;1.92;1.33;;;;;;;9.79;100.00;111237.00;4989493;28;20497;-71
2023/11/25 10:13:44;;;;;;;3.47;1.42;;;;;;;9.56;100.00;110817.50;4988388;28;20037;-71
2023/11/25 10:16:10;;;;;;;1.50;1.20;;;;;;;9.51;100.00;110519.00;4987439;28;20046;-75
2023/11/25 10:18:36;;;;;;;2.53;0.90;;;;;;;9.46;100.00;110186.59;4973214;28;20053;-73
2023/11/25 10:21:05;;;;;;;0.40;0.40;;;;;;;9.16;100.00;109754.03;4989848;28;20492;-74
2023/11/25 10:23:32;;;;;;;0.88;0.68;;;;;;;8.86;100.00;109392.38;4970154;28;20027;-77
2023/11/25 10:26:03;;;;;;;1.55;1.00;;;;;;;8.92;100.00;109080.56;4972825;28;20042;-70
2023/11/25 10:28:33;;;;;;;1.75;1.20;;;;;;;9.08;100.00;108854.59;4988753;28;20022;-75
2023/11/25 10:30:59;;;;;;;1.55;1.00;;;;;;;9.17;100.00;108604.91;4986871;28;20030;-74
2023/11/25 10:33:27;;;;;;;1.48;1.08;;;;;;;8.51;100.00;108168.69;4970767;28;20120;-75
2023/11/25 10:35:54;;;;;;;2.30;0.90;;;;;;;8.90;100.00;107966.41;4989734;28;20493;-74
2023/11/25 10:38:27;;;;;;;2.97;0.93;;;;;;;8.60;100.00;107658.34;4974344;28;20040;-75
2023/11/25 10:41:00;;;;;;;3.08;0.70;;;;;;;8.39;100.00;107288.97;4992450;28;20492;-76
2023/11/25 10:43:26;;;;;;;1.27;0.70;;;;;;;8.54;100.00;107127.09;4991082;28;20027;-74
2023/11/25 10:46:06;;;;;;;1.80;0.90;;;;;;;8.40;100.00;106878.69;4991793;28;20038;-75
2023/11/25 10:48:37;;;;;;;1.42;0.88;;;;;;;7.91;100.00;106586.66;4994123;28;20022;-75
2023/11/25 10:51:03;;;;;;;1.38;0.80;;;;;;;7.74;100.00;106358.66;4992782;28;20072;-69
2023/11/25 10:53:30;;;;;;;2.03;1.20;;;;;;;7.85;100.00;106247.28;4990721;28;20114;-75
2023/11/25 10:55:58;;;;;;;2.15;0.70;;;;;;;8.28;100.00;106145.22;4992630;28;20023;-72
2023/11/25 10:58:27;;;;;;;1.38;0.77;;;;;;;8.12;100.00;105941.81;4991938;28;20412;-75
2023/11/25 11:00:57;;;;;;;2.22;1.23;;;;;;;7.70;100.00;105754.34;4991062;28;20038;-75
2023/11/25 11:03:41;;;;;;;1.00;0.60;;;;;;;8.25;100.00;105687.53;4992755;28;20042;-76
2023/11/25 11:06:11;;;;;;;1.17;0.73;;;;;;;8.26;100.00;105535.44;4975591;28;20065;-74
2023/11/25 11:08:37;;;;;;;1.48;0.70;;;;;;;7.96;100.00;105360.84;4974327;28;20057;-75
2023/11/25 11:11:31;;;;;;;2.58;1.13;;;;;;;8.30;100.00;105291.38;4993736;28;20021;-72
2023/11/25 11:14:11;;;;;;;1.85;1.27;;;;;;;8.20;100.00;105116.53;4979364;28;20038;-73
2023/11/25 11:16:45;;;;;;;1.15;0.70;;;;;;;7.53;100.00;104850.34;4992299;28;20050;-75